createdAt,value
2018-12-27T00:00:12.567Z,81.80
2018-12-27T00:02:40.994Z,80.80
2018-12-27T00:05:09.436Z,81.10
2018-12-27T00:07:37.874Z,81.40
2018-12-27T00:10:06.575Z,81.40
2018-12-27T00:12:35.046Z,81.00
2018-12-27T00:15:04.225Z,80.60
2018-12-27T00:17:32.661Z,80.50
2018-12-27T00:20:01.117Z,80.20
2018-12-27T00:22:29.538Z,80.10
2018-12-27T00:24:57.999Z,80.20
2018-12-27T00:27:26.426Z,80.10
2018-12-27T00:29:54.935Z,80.60
2018-12-27T00:32:23.518Z,80.40
2018-12-27T00:34:52.127Z,79.10
2018-12-27T00:37:20.706Z,79.20
2018-12-27T00:39:49.290Z,79.50
2018-12-27T00:42:17.886Z,79.70
2018-12-27T00:44:46.470Z,80.60
2018-12-27T00:47:15.154Z,81.00
2018-12-27T00:49:43.853Z,80.90
2018-12-27T00:52:12.459Z,80.50
2018-12-27T00:54:41.056Z,80.20
2018-12-27T00:57:11.105Z,79.70
2018-12-27T00:59:39.727Z,79.40
2018-12-27T01:02:08.365Z,78.80
2018-12-27T01:04:36.952Z,78.30
2018-12-27T01:07:05.582Z,78.00
2018-12-27T01:09:34.176Z,77.60
2018-12-27T01:12:02.783Z,76.70
2018-12-27T01:14:31.375Z,75.40
2018-12-27T01:17:00.001Z,74.30
2018-12-27T01:19:28.587Z,74.10
2018-12-27T01:21:57.166Z,73.90
2018-12-27T01:24:25.771Z,73.90
2018-12-27T01:26:54.343Z,74.30
2018-12-27T01:29:22.961Z,75.00
2018-12-27T01:31:51.535Z,74.10
2018-12-27T01:34:20.146Z,74.20
2018-12-27T01:36:48.792Z,75.30
2018-12-27T01:39:17.402Z,75.10
2018-12-27T01:41:45.987Z,75.00
2018-12-27T01:44:14.590Z,75.30
2018-12-27T01:46:43.166Z,75.50
2018-12-27T01:49:11.771Z,75.40
2018-12-27T01:51:40.387Z,75.20
2018-12-27T01:54:08.979Z,74.80
2018-12-27T01:56:37.586Z,75.10
2018-12-27T01:59:06.190Z,75.10
2018-12-27T02:01:34.780Z,74.60
2018-12-27T02:04:03.358Z,74.20
2018-12-27T02:06:31.967Z,74.50
2018-12-27T02:09:00.583Z,74.40
2018-12-27T02:11:29.190Z,74.40
2018-12-27T02:13:57.780Z,74.20
2018-12-27T02:16:26.430Z,74.20
2018-12-27T02:18:55.024Z,73.30
2018-12-27T02:21:23.729Z,73.20
2018-12-27T02:23:52.302Z,72.90
2018-12-27T02:26:20.910Z,72.80
2018-12-27T02:28:49.659Z,72.10
2018-12-27T02:31:18.259Z,71.40
2018-12-27T02:33:46.839Z,71.50
2018-12-27T02:36:15.443Z,70.90
2018-12-27T02:38:44.047Z,69.80
2018-12-27T02:41:12.647Z,69.20
2018-12-27T02:43:41.227Z,69.30
2018-12-27T02:46:09.844Z,69.00
2018-12-27T02:48:38.425Z,68.80
2018-12-27T02:51:07.016Z,68.90
2018-12-27T02:53:35.621Z,68.40
2018-12-27T02:56:04.209Z,68.40
2018-12-27T02:58:32.822Z,68.80
2018-12-27T03:01:01.399Z,69.10
2018-12-27T03:03:30.012Z,69.60
2018-12-27T03:05:58.590Z,69.90
2018-12-27T03:08:27.190Z,70.40
2018-12-27T03:10:55.762Z,70.20
2018-12-27T03:13:24.399Z,70.60
2018-12-27T03:15:53.023Z,69.80
2018-12-27T03:18:21.635Z,69.50
2018-12-27T03:20:50.297Z,69.80
2018-12-27T03:23:18.906Z,69.70
2018-12-27T03:25:47.501Z,69.10
2018-12-27T03:28:16.101Z,69.10
2018-12-27T03:30:44.729Z,69.10
2018-12-27T03:33:13.304Z,69.30
2018-12-27T03:35:41.909Z,69.00
2018-12-27T03:38:11.951Z,69.00
2018-12-27T03:40:40.548Z,68.90
2018-12-27T03:43:09.135Z,68.50
2018-12-27T03:45:37.734Z,68.00
2018-12-27T03:48:06.318Z,67.40
2018-12-27T03:50:34.917Z,67.50
2018-12-27T03:53:03.502Z,67.50
2018-12-27T03:55:32.098Z,67.40
2018-12-27T03:58:00.757Z,67.50
2018-12-27T04:00:29.386Z,67.20
2018-12-27T04:02:57.973Z,66.80
2018-12-27T04:05:26.592Z,67.20
2018-12-27T04:07:55.159Z,67.20
2018-12-27T04:10:23.775Z,67.60
2018-12-27T04:12:52.348Z,67.60
2018-12-27T04:15:20.784Z,67.20
2018-12-27T04:17:49.220Z,67.00
2018-12-27T04:20:19.327Z,66.80
2018-12-27T04:22:47.755Z,67.20
2018-12-27T04:25:16.253Z,67.70
2018-12-27T04:27:44.703Z,68.00
2018-12-27T04:30:13.459Z,68.10
2018-12-27T04:32:43.330Z,68.40
2018-12-27T04:35:12.332Z,68.70
2018-12-27T04:37:40.791Z,68.60
2018-12-27T04:40:09.231Z,68.30
2018-12-27T04:42:38.411Z,68.20
2018-12-27T04:45:06.899Z,68.20
2018-12-27T04:47:35.352Z,67.80
2018-12-27T04:50:05.324Z,67.80
2018-12-27T04:52:33.776Z,67.70
2018-12-27T04:55:02.202Z,67.50
2018-12-27T04:57:30.662Z,67.70
2018-12-27T04:59:59.076Z,67.50
2018-12-27T05:02:27.526Z,67.60
2018-12-27T05:04:55.990Z,67.40
2018-12-27T05:07:24.439Z,67.70
2018-12-27T05:09:52.858Z,67.60
2018-12-27T05:12:21.311Z,67.60
2018-12-27T05:14:49.735Z,67.60
2018-12-27T05:17:18.261Z,67.60
2018-12-27T05:19:46.722Z,66.90
2018-12-27T05:22:15.156Z,66.80
2018-12-27T05:24:43.595Z,67.10
2018-12-27T05:27:12.019Z,67.10
2018-12-27T05:29:40.466Z,66.80
2018-12-27T05:32:08.897Z,66.80
2018-12-27T05:34:37.335Z,66.40
2018-12-27T05:37:05.757Z,66.40
2018-12-27T05:39:34.209Z,66.50
2018-12-27T05:42:02.698Z,66.90
2018-12-27T05:44:31.206Z,66.70
2018-12-27T05:46:59.650Z,66.80
2018-12-27T05:49:28.114Z,66.90
2018-12-27T05:51:56.553Z,66.90
2018-12-27T05:54:24.974Z,66.90
2018-12-27T05:56:53.438Z,66.80
2018-12-27T05:59:21.860Z,67.10
2018-12-27T06:01:50.339Z,66.60
2018-12-27T06:04:18.754Z,66.50
2018-12-27T06:06:47.203Z,66.60
2018-12-27T06:09:15.687Z,66.50
2018-12-27T06:11:44.226Z,66.80
2018-12-27T06:14:12.677Z,66.90
2018-12-27T06:16:41.147Z,67.10
2018-12-27T06:19:09.633Z,67.00
2018-12-27T06:21:38.084Z,67.10
2018-12-27T06:24:06.519Z,67.30
2018-12-27T06:26:34.957Z,67.50
2018-12-27T06:29:03.431Z,67.50
2018-12-27T06:31:31.880Z,67.20
2018-12-27T06:34:00.307Z,67.40
2018-12-27T06:36:28.733Z,67.40
2018-12-27T06:38:57.168Z,67.30
2018-12-27T06:41:25.626Z,67.30
2018-12-27T06:43:54.061Z,67.30
2018-12-27T06:46:22.518Z,66.90
2018-12-27T06:48:50.953Z,67.30
2018-12-27T06:51:19.379Z,67.70
2018-12-27T06:53:47.848Z,67.10
2018-12-27T06:56:16.282Z,66.80
2018-12-27T06:58:44.796Z,67.10
2018-12-27T07:01:13.219Z,67.00
2018-12-27T07:03:41.676Z,66.70
2018-12-27T07:06:10.102Z,66.70
2018-12-27T07:08:38.570Z,66.80
2018-12-27T07:11:06.986Z,67.50
2018-12-27T07:13:35.421Z,68.40
2018-12-27T07:16:03.860Z,68.10
2018-12-27T07:18:32.321Z,67.90
2018-12-27T07:21:00.778Z,68.00
2018-12-27T07:23:29.240Z,68.00
2018-12-27T07:25:57.666Z,68.20
2018-12-27T07:28:26.086Z,68.40
2018-12-27T07:30:54.540Z,68.40
2018-12-27T07:33:22.966Z,67.90
2018-12-27T07:35:51.422Z,68.20
2018-12-27T07:38:19.849Z,68.00
2018-12-27T07:40:48.318Z,68.20
2018-12-27T07:43:16.734Z,68.30
2018-12-27T07:45:45.179Z,68.70
2018-12-27T07:48:13.609Z,68.70
2018-12-27T07:50:42.138Z,68.50
2018-12-27T07:53:10.638Z,68.10
2018-12-27T07:55:39.099Z,67.70
2018-12-27T07:58:07.527Z,67.00
2018-12-27T08:00:36.067Z,66.70
2018-12-27T08:03:04.483Z,66.40
2018-12-27T08:05:32.934Z,65.80
2018-12-27T08:08:01.367Z,65.70
2018-12-27T08:10:29.815Z,66.60
2018-12-27T08:12:58.248Z,66.10
2018-12-27T08:15:26.762Z,66.00
2018-12-27T08:17:55.224Z,66.00
2018-12-27T08:20:23.647Z,65.10
2018-12-27T08:22:52.093Z,65.20
2018-12-27T08:25:20.579Z,65.10
2018-12-27T08:27:49.022Z,64.90
2018-12-27T08:30:17.655Z,65.20
2018-12-27T08:32:46.106Z,66.20
2018-12-27T08:35:14.544Z,65.80
2018-12-27T08:37:42.988Z,65.00
2018-12-27T08:40:11.423Z,64.10
2018-12-27T08:42:39.886Z,64.20
2018-12-27T08:45:08.320Z,65.00
2018-12-27T08:47:36.765Z,64.00
2018-12-27T08:50:07.224Z,64.40
2018-12-27T08:52:35.672Z,64.10
2018-12-27T08:55:04.538Z,64.00
2018-12-27T08:57:33.005Z,63.40
2018-12-27T09:00:01.426Z,62.40
2018-12-27T09:02:29.848Z,62.70
2018-12-27T09:04:58.304Z,64.00
2018-12-27T09:07:26.800Z,62.40
2018-12-27T09:09:55.246Z,63.40
2018-12-27T09:12:23.671Z,63.70
2018-12-27T09:14:52.137Z,64.00
2018-12-27T09:17:20.614Z,62.70
2018-12-27T09:19:49.074Z,63.30
2018-12-27T09:22:17.511Z,62.20
2018-12-27T09:24:45.976Z,62.10
2018-12-27T09:27:14.402Z,61.80
2018-12-27T09:29:44.503Z,61.50
2018-12-27T09:32:12.946Z,62.30
2018-12-27T09:34:41.399Z,62.30
2018-12-27T09:37:09.817Z,62.30
2018-12-27T09:39:38.263Z,62.70
2018-12-27T09:42:06.694Z,63.30
2018-12-27T09:44:35.142Z,63.00
2018-12-27T09:47:03.568Z,62.90
2018-12-27T09:49:32.024Z,61.50
2018-12-27T09:52:02.209Z,62.50
2018-12-27T09:54:30.624Z,63.50
2018-12-27T09:56:59.091Z,62.80
2018-12-27T09:59:27.530Z,63.20
2018-12-27T10:01:56.832Z,62.40
2018-12-27T10:04:25.278Z,63.10
2018-12-27T10:06:53.731Z,63.40
2018-12-27T10:09:22.160Z,62.30
2018-12-27T10:11:50.676Z,61.40
2018-12-27T10:14:19.147Z,62.30
2018-12-27T10:16:47.589Z,63.20
2018-12-27T10:19:16.029Z,63.80
2018-12-27T10:21:44.498Z,63.00
2018-12-27T10:24:12.910Z,61.80
2018-12-27T10:26:41.380Z,62.70
2018-12-27T10:29:09.821Z,62.30
2018-12-27T10:31:38.271Z,63.50
2018-12-27T10:34:06.703Z,63.50
2018-12-27T10:36:36.773Z,63.90
2018-12-27T10:39:06.635Z,63.30
2018-12-27T10:41:35.093Z,63.30
2018-12-27T10:44:03.521Z,63.40
2018-12-27T10:46:31.990Z,62.30
2018-12-27T10:49:00.653Z,62.50
2018-12-27T10:51:29.089Z,62.20
2018-12-27T10:53:57.541Z,62.20
2018-12-27T10:56:25.977Z,62.00
2018-12-27T10:58:54.431Z,62.80
2018-12-27T11:01:22.850Z,62.10
2018-12-27T11:03:51.328Z,62.00
2018-12-27T11:06:19.757Z,61.20
2018-12-27T11:08:48.220Z,61.80
2018-12-27T11:11:16.638Z,62.00
2018-12-27T11:13:45.107Z,61.00
2018-12-27T11:16:13.546Z,61.80
2018-12-27T11:18:41.987Z,62.40
2018-12-27T11:21:10.416Z,62.40
2018-12-27T11:23:38.876Z,60.70
2018-12-27T11:26:08.839Z,61.40
2018-12-27T11:28:38.862Z,61.60
2018-12-27T11:31:07.379Z,62.30
2018-12-27T11:33:35.821Z,62.10
2018-12-27T11:36:04.342Z,61.40
2018-12-27T11:38:32.780Z,60.70
2018-12-27T11:41:01.236Z,60.70
2018-12-27T11:43:29.751Z,60.80
2018-12-27T11:45:58.202Z,61.60
2018-12-27T11:48:26.636Z,61.90
2018-12-27T11:50:55.183Z,61.80
2018-12-27T11:53:23.608Z,61.60
2018-12-27T11:55:52.051Z,61.40
2018-12-27T11:58:20.486Z,61.60
2018-12-27T12:00:48.943Z,61.10
2018-12-27T12:03:17.382Z,61.80
2018-12-27T12:05:45.841Z,62.00
2018-12-27T12:08:14.271Z,61.70
2018-12-27T12:10:42.709Z,61.20
2018-12-27T12:13:11.155Z,61.20
2018-12-27T12:15:39.627Z,61.20
2018-12-27T12:18:08.047Z,60.60
2018-12-27T12:20:36.627Z,60.80
2018-12-27T12:23:05.059Z,60.90
2018-12-27T12:25:33.498Z,61.40
2018-12-27T12:28:02.010Z,61.00
2018-12-27T12:30:30.604Z,61.20
2018-12-27T12:32:59.037Z,61.40
2018-12-27T12:35:27.518Z,61.30
2018-12-27T12:37:56.420Z,61.00
2018-12-27T12:40:24.925Z,61.20
2018-12-27T12:42:53.365Z,61.00
2018-12-27T12:45:21.790Z,61.20
2018-12-27T12:47:50.232Z,61.70
2018-12-27T12:50:18.662Z,61.30
2018-12-27T12:52:47.115Z,61.70
2018-12-27T12:55:15.546Z,60.80
2018-12-27T12:57:43.993Z,60.80
2018-12-27T13:00:14.038Z,61.10
2018-12-27T13:02:42.473Z,61.30
2018-12-27T13:05:10.899Z,61.20
2018-12-27T13:07:39.350Z,61.40
2018-12-27T13:10:07.807Z,61.20
2018-12-27T13:12:36.255Z,61.10
2018-12-27T13:15:05.426Z,60.60
2018-12-27T13:17:33.862Z,60.70
2018-12-27T13:20:02.325Z,60.70
2018-12-27T13:22:30.839Z,60.80
2018-12-27T13:24:59.262Z,60.60
2018-12-27T13:27:27.983Z,60.20
2018-12-27T13:29:56.407Z,60.50
2018-12-27T13:32:24.836Z,60.50
2018-12-27T13:34:53.289Z,61.20
2018-12-27T13:37:21.708Z,61.20
2018-12-27T13:39:50.163Z,61.30
2018-12-27T13:42:18.600Z,60.90
2018-12-27T13:44:47.053Z,61.00
2018-12-27T13:47:15.483Z,61.20
2018-12-27T13:49:43.935Z,61.20
2018-12-27T13:52:12.369Z,61.40
2018-12-27T13:54:40.831Z,61.50
2018-12-27T13:57:09.446Z,61.60
2018-12-27T13:59:37.903Z,61.50
2018-12-27T14:02:06.418Z,61.80
2018-12-27T14:04:34.901Z,62.00
2018-12-27T14:07:03.354Z,62.30
2018-12-27T14:09:31.771Z,62.20
2018-12-27T14:12:00.244Z,61.90
2018-12-27T14:14:28.667Z,62.60
2018-12-27T14:16:57.130Z,62.90
2018-12-27T14:19:25.571Z,63.30
2018-12-27T14:21:54.054Z,63.50
2018-12-27T14:24:22.474Z,63.90
2018-12-27T14:26:51.223Z,64.10
2018-12-27T14:29:19.640Z,64.10
2018-12-27T14:31:48.154Z,64.30
2018-12-27T14:34:16.583Z,64.30
2018-12-27T14:36:45.041Z,64.10
2018-12-27T14:39:13.452Z,64.10
2018-12-27T14:41:41.918Z,64.30
2018-12-27T14:44:10.350Z,64.50
2018-12-27T14:46:38.799Z,64.90
2018-12-27T14:49:07.219Z,66.10
2018-12-27T14:51:35.678Z,66.70
2018-12-27T14:54:04.166Z,68.00
2018-12-27T14:56:32.646Z,68.60
2018-12-27T14:59:01.098Z,69.20
2018-12-27T15:01:29.521Z,69.70
2018-12-27T15:03:57.966Z,69.80
2018-12-27T15:06:26.386Z,70.10
2018-12-27T15:08:54.838Z,70.60
2018-12-27T15:11:23.290Z,71.00
2018-12-27T15:13:51.746Z,71.30
2018-12-27T15:16:20.162Z,71.40
2018-12-27T15:18:48.619Z,71.60
2018-12-27T15:21:17.048Z,72.00
2018-12-27T15:23:45.510Z,72.30
2018-12-27T15:26:16.733Z,72.30
2018-12-27T15:28:45.190Z,72.60
2018-12-27T15:31:13.613Z,72.90
2018-12-27T15:33:42.074Z,73.00
2018-12-27T15:36:10.550Z,73.20
2018-12-27T15:38:38.985Z,73.70
2018-12-27T15:41:07.452Z,73.80
2018-12-27T15:43:35.874Z,74.10
2018-12-27T15:46:04.322Z,73.90
2018-12-27T15:48:32.802Z,73.80
2018-12-27T15:51:01.252Z,74.00
2018-12-27T15:53:29.682Z,74.20
2018-12-27T15:55:58.125Z,74.10
2018-12-27T15:58:26.551Z,74.20
2018-12-27T16:00:55.027Z,74.40
2018-12-27T16:03:23.461Z,74.60
2018-12-27T16:05:51.930Z,74.60
2018-12-27T16:08:20.350Z,74.70
2018-12-27T16:10:48.812Z,74.80
2018-12-27T16:13:17.241Z,75.50
2018-12-27T16:15:45.738Z,75.40
2018-12-27T16:18:14.154Z,75.50
2018-12-27T16:20:42.613Z,75.40
2018-12-27T16:23:11.037Z,75.40
2018-12-27T16:25:39.577Z,75.60
2018-12-27T16:28:08.043Z,75.70
2018-12-27T16:30:36.506Z,75.60
2018-12-27T16:33:04.966Z,75.50
2018-12-27T16:35:33.407Z,75.80
2018-12-27T16:38:01.987Z,76.00
2018-12-27T16:40:30.418Z,76.30
2018-12-27T16:42:58.884Z,76.60
2018-12-27T16:45:27.328Z,77.00
2018-12-27T16:47:55.855Z,77.20
2018-12-27T16:50:25.685Z,77.30
2018-12-27T16:52:54.141Z,77.50
2018-12-27T16:55:22.596Z,77.50
2018-12-27T16:57:51.052Z,77.40
2018-12-27T17:00:19.506Z,77.30
2018-12-27T17:02:47.947Z,77.10
2018-12-27T17:05:16.373Z,76.80
2018-12-27T17:07:44.806Z,77.00
2018-12-27T17:10:13.337Z,76.80
2018-12-27T17:12:41.759Z,77.10
2018-12-27T17:15:10.242Z,77.50
2018-12-27T17:17:38.794Z,77.80
2018-12-27T17:20:07.269Z,78.50
2018-12-27T17:22:35.708Z,78.80
2018-12-27T17:25:04.242Z,79.30
2018-12-27T17:27:32.658Z,79.80
2018-12-27T17:30:01.164Z,80.30
2018-12-27T17:32:29.579Z,80.40
2018-12-27T17:34:58.039Z,80.30
2018-12-27T17:37:26.572Z,80.40
2018-12-27T17:39:55.007Z,80.50
2018-12-27T17:42:23.499Z,80.00
2018-12-27T17:44:51.959Z,80.40
2018-12-27T17:47:20.384Z,80.50
2018-12-27T17:49:48.830Z,80.50
2018-12-27T17:52:17.263Z,80.20
2018-12-27T17:54:45.804Z,79.80
2018-12-27T17:57:14.239Z,80.20
2018-12-27T17:59:42.723Z,80.40
2018-12-27T18:02:11.173Z,81.10
2018-12-27T18:04:39.654Z,81.40
2018-12-27T18:07:08.105Z,81.60
2018-12-27T18:09:36.548Z,81.70
2018-12-27T18:12:05.106Z,81.80
2018-12-27T18:14:33.532Z,81.70
2018-12-27T18:17:01.983Z,81.60
2018-12-27T18:19:33.599Z,81.60
2018-12-27T18:22:02.070Z,81.70
2018-12-27T18:24:30.525Z,81.70
2018-12-27T18:26:58.986Z,81.50
2018-12-27T18:29:27.426Z,81.30
2018-12-27T18:31:55.894Z,80.80
2018-12-27T18:34:24.321Z,80.60
2018-12-27T18:36:52.786Z,81.20
2018-12-27T18:39:21.203Z,81.70
2018-12-27T18:41:49.639Z,81.80
2018-12-27T18:44:18.088Z,81.70
2018-12-27T18:46:46.640Z,81.10
2018-12-27T18:49:20.589Z,80.60
2018-12-27T18:51:45.289Z,80.10
2018-12-27T18:54:13.715Z,79.50
2018-12-27T18:56:42.146Z,78.50
2018-12-27T18:59:10.595Z,76.90
2018-12-27T19:01:39.049Z,76.40
2018-12-27T19:04:07.514Z,76.30
2018-12-27T19:06:35.928Z,76.00
2018-12-27T19:09:06.489Z,75.60
2018-12-27T19:12:11.323Z,76.30
2018-12-27T19:14:39.906Z,76.30
2018-12-27T19:17:11.499Z,77.10
2018-12-27T19:19:41.781Z,77.10
2018-12-27T19:22:12.007Z,77.20
2018-12-27T19:24:40.465Z,77.70
2018-12-27T19:27:08.921Z,78.80
2018-12-27T19:29:37.358Z,79.30
2018-12-27T19:32:05.800Z,79.70
2018-12-27T19:34:34.275Z,80.50
2018-12-27T19:37:02.703Z,81.10
2018-12-27T19:39:31.179Z,81.30
2018-12-27T19:41:59.609Z,81.60
2018-12-27T19:44:28.034Z,81.30
2018-12-27T19:46:56.482Z,81.40
2018-12-27T19:49:24.943Z,81.10
2018-12-27T19:51:53.385Z,81.50
2018-12-27T19:54:21.809Z,81.60
2018-12-27T19:56:50.265Z,81.50
2018-12-27T19:59:18.767Z,82.10
2018-12-27T20:01:47.210Z,82.40
2018-12-27T20:04:15.638Z,82.40
2018-12-27T20:06:44.096Z,81.70
2018-12-27T20:09:12.536Z,82.00
2018-12-27T20:11:40.987Z,82.20
2018-12-27T20:14:09.419Z,82.10
2018-12-27T20:16:37.882Z,82.40
2018-12-27T20:19:06.316Z,82.60
2018-12-27T20:21:34.771Z,82.40
2018-12-27T20:24:03.321Z,82.90
2018-12-27T20:26:31.815Z,83.10
2018-12-27T20:29:00.252Z,83.30
2018-12-27T20:31:28.760Z,83.10
2018-12-27T20:33:57.244Z,83.30
2018-12-27T20:36:25.681Z,83.00
2018-12-27T20:38:54.133Z,83.30
2018-12-27T20:41:22.558Z,83.70
2018-12-27T20:43:51.018Z,83.60
2018-12-27T20:46:19.443Z,83.90
2018-12-27T20:48:47.933Z,84.10
2018-12-27T20:51:16.417Z,83.50
2018-12-27T20:53:44.867Z,83.70
2018-12-27T20:56:13.322Z,83.60
2018-12-27T20:58:41.763Z,83.50
2018-12-27T21:01:10.216Z,83.60
2018-12-27T21:03:38.669Z,83.50
2018-12-27T21:06:07.112Z,83.70
2018-12-27T21:08:35.573Z,83.50
2018-12-27T21:11:04.090Z,83.80
2018-12-27T21:13:32.551Z,84.30
2018-12-27T21:16:01.001Z,84.60
2018-12-27T21:18:29.471Z,84.40
2018-12-27T21:20:57.929Z,84.10
2018-12-27T21:23:26.386Z,84.00
2018-12-27T21:25:54.834Z,83.40
2018-12-27T21:28:23.265Z,83.10
2018-12-27T21:30:51.879Z,82.50
2018-12-27T21:33:20.321Z,82.20
2018-12-27T21:35:48.770Z,82.10
2018-12-27T21:38:21.323Z,82.30
2018-12-27T21:40:47.401Z,82.30
2018-12-27T21:43:15.832Z,82.20
2018-12-27T21:45:44.283Z,82.30
2018-12-27T21:48:12.722Z,81.40
2018-12-27T21:50:41.179Z,82.00
2018-12-27T21:53:09.594Z,82.90
2018-12-27T21:55:38.034Z,83.10
2018-12-27T21:58:06.509Z,82.80
2018-12-27T22:00:34.978Z,82.70
2018-12-27T22:03:03.441Z,82.40
2018-12-27T22:05:31.893Z,82.00
2018-12-27T22:08:00.353Z,82.00
2018-12-27T22:10:28.767Z,82.40
2018-12-27T22:12:57.230Z,82.20
2018-12-27T22:15:25.658Z,82.20
2018-12-27T22:17:54.130Z,82.10
2018-12-27T22:20:22.567Z,82.00
2018-12-27T22:22:51.038Z,81.70
2018-12-27T22:25:19.484Z,81.50
2018-12-27T22:27:47.958Z,81.20
2018-12-27T22:30:16.373Z,81.20
2018-12-27T22:32:44.827Z,81.30
2018-12-27T22:35:13.328Z,81.70
2018-12-27T22:37:41.777Z,81.90
2018-12-27T22:40:10.299Z,81.60
2018-12-27T22:42:38.717Z,81.70
2018-12-27T22:45:07.387Z,82.40
2018-12-27T22:47:37.349Z,82.80
2018-12-27T22:50:06.368Z,82.80
2018-12-27T22:52:34.856Z,82.90
2018-12-27T22:55:03.487Z,82.50
2018-12-27T22:57:31.911Z,82.70
2018-12-27T23:00:00.362Z,83.00
2018-12-27T23:02:28.842Z,83.10
2018-12-27T23:04:57.307Z,82.70
2018-12-27T23:07:25.754Z,83.00
2018-12-27T23:09:54.295Z,83.50
2018-12-27T23:12:22.735Z,83.90
2018-12-27T23:14:51.413Z,83.90
2018-12-27T23:17:20.066Z,84.00
2018-12-27T23:19:48.523Z,84.00
2018-12-27T23:22:16.993Z,84.20
2018-12-27T23:24:45.435Z,84.20
2018-12-27T23:27:13.998Z,84.60
2018-12-27T23:29:42.422Z,84.60
2018-12-27T23:32:10.870Z,84.90
2018-12-27T23:34:39.315Z,84.90
2018-12-27T23:37:07.949Z,85.10
2018-12-27T23:39:36.370Z,84.90
2018-12-27T23:42:04.830Z,84.80
2018-12-27T23:44:33.259Z,85.10
2018-12-27T23:47:01.698Z,85.30
2018-12-27T23:49:30.146Z,85.00
2018-12-27T23:51:58.577Z,85.50
2018-12-27T23:54:27.020Z,85.50
2018-12-27T23:56:55.475Z,85.30
2018-12-27T23:59:23.900Z,85.80
